Time;durP1;ratioP1;P1;durP2;ratioP2;P2;SDS_P1;SDS_P2;PMS_P1;PMS_P2;Temp;Humidity;BMP_temperature;BMP_pressure;BME280_temperature;BME280_humidity;BME280_pressure;Samples;Min_cycle;Max_cycle;Signal;HPM_P1;HPM_P2
2021/12/18 00:01:33;;;;;;;;;;;7.50;99.90;;;;;;5053174;28;20318;-75
2021/12/18 00:03:59;;;;;;;;;;;7.50;99.90;;;;;;5053868;28;19904;-74
2021/12/18 00:06:27;;;;;;;;;;;7.50;99.90;;;;;;5053595;28;19924;-75
2021/12/18 00:08:53;;;;;;;;;;;7.50;99.90;;;;;;5052424;28;20370;-75
2021/12/18 00:11:19;;;;;;;;;;;7.50;99.90;;;;;;5068946;28;20252;-75
2021/12/18 00:13:44;;;;;;;;;;;7.50;99.90;;;;;;5053067;28;19911;-74
2021/12/18 00:16:10;;;;;;;;;;;7.40;99.90;;;;;;5053387;28;19904;-75
2021/12/18 00:18:35;;;;;;;;;;;7.40;99.90;;;;;;5053031;28;19971;-75
2021/12/18 00:21:02;;;;;;;;;;;7.50;99.90;;;;;;5053448;28;19958;-74
2021/12/18 00:23:27;;;;;;;;;;;7.40;99.90;;;;;;5053163;28;19951;-75
2021/12/18 00:25:53;;;;;;;;;;;7.40;99.90;;;;;;5052078;28;19908;-74
2021/12/18 00:28:19;;;;;;;;;;;7.40;99.90;;;;;;5053621;28;19940;-74
2021/12/18 00:30:44;;;;;;;;;;;7.40;99.90;;;;;;5053243;28;19909;-75
2021/12/18 00:33:10;;;;;;;;;;;7.40;99.90;;;;;;5053752;28;19905;-74
2021/12/18 00:35:36;;;;;;;;;;;7.40;99.90;;;;;;5052555;28;19904;-75
2021/12/18 00:38:03;;;;;;;;;;;7.40;99.90;;;;;;5053383;28;20370;-75
2021/12/18 00:40:42;;;;;;;;;;;7.40;99.90;;;;;;5052931;28;19911;-76
2021/12/18 00:43:22;;;;;;;;;;;7.40;99.90;;;;;;5052380;28;20367;-73
2021/12/18 00:45:47;;;;;;;;;;;7.40;99.90;;;;;;5052208;28;19912;-75
2021/12/18 00:48:13;;;;;;;;;;;7.40;99.90;;;;;;5052865;28;19912;-75
2021/12/18 00:50:38;;;;;;;;;;;7.40;99.90;;;;;;5052411;28;20446;-74
2021/12/18 00:53:04;;;;;;;;;;;7.40;99.90;;;;;;5053185;28;19915;-74
2021/12/18 00:55:30;;;;;;;;;;;7.40;99.90;;;;;;5052825;28;20249;-74
2021/12/18 00:57:55;;;;;;;;;;;7.40;99.90;;;;;;5052523;28;19933;-74
2021/12/18 01:00:23;;;;;;;;;;;7.40;99.90;;;;;;5053028;28;20351;-73
2021/12/18 01:02:52;;;;;;;;;;;7.40;99.90;;;;;;5052225;28;19904;-74
2021/12/18 01:05:17;;;;;;;;;;;7.40;99.90;;;;;;5052890;28;19959;-74
2021/12/18 01:07:43;;;;;;;;;;;7.40;99.90;;;;;;5051802;28;20318;-74
2021/12/18 01:13:14;;;;;;;;;;;7.40;99.90;;;;;;5050083;28;20449;-74
2021/12/18 01:15:46;;;;;;;;;;;7.40;99.90;;;;;;5051730;28;19905;-74
2021/12/18 01:23:40;;;;;;;;;;;7.30;99.90;;;;;;5052237;28;19988;-75
2021/12/18 01:26:06;;;;;;;;;;;7.30;99.90;;;;;;5052668;28;20422;-74
2021/12/18 01:28:32;;;;;;;;;;;7.30;99.90;;;;;;5053006;28;19958;-74
2021/12/18 01:30:57;;;;;;;;;;;7.30;99.90;;;;;;5052144;28;20465;-74
2021/12/18 01:33:23;;;;;;;;;;;7.30;99.90;;;;;;5052685;28;19905;-74
2021/12/18 01:35:49;;;;;;;;;;;7.30;99.90;;;;;;5051262;28;19999;-75
2021/12/18 01:38:15;;;;;;;;;;;7.30;99.90;;;;;;5052439;28;19909;-74
2021/12/18 01:40:41;;;;;;;;;;;7.30;99.90;;;;;;5051609;28;19911;-74
2021/12/18 01:51:32;;;;;;;;;;;7.20;99.90;;;;;;5052544;28;20259;-74
2021/12/18 01:53:58;;;;;;;;;;;7.20;99.90;;;;;;5050557;28;19900;-74
2021/12/18 01:56:24;;;;;;;;;;;7.10;99.90;;;;;;5052114;28;19912;-74
2021/12/18 01:58:50;;;;;;;;;;;7.10;99.90;;;;;;5051792;28;19905;-74
2021/12/18 02:01:16;;;;;;;;;;;7.10;99.90;;;;;;5052480;28;19948;-74
2021/12/18 02:03:42;;;;;;;;;;;7.10;99.90;;;;;;5051744;28;20003;-74
2021/12/18 02:06:08;;;;;;;;;;;7.10;99.90;;;;;;5052264;28;20023;-75
2021/12/18 02:08:36;;;;;;;;;;;7.00;99.90;;;;;;5052019;28;20378;-73
2021/12/18 02:21:38;;;;;;;;;;;6.90;99.90;;;;;;5051861;28;19928;-73
2021/12/18 02:24:04;;;;;;;;;;;7.00;99.90;;;;;;5051607;28;20355;-73
2021/12/18 02:26:30;;;;;;;;;;;7.00;99.90;;;;;;5052074;28;19963;-74
2021/12/18 02:28:58;;;;;;;;;;;6.90;99.90;;;;;;5051439;28;19905;-74
2021/12/18 02:31:24;;;;;;;;;;;6.80;99.90;;;;;;5052065;28;19909;-73
2021/12/18 02:33:50;;;;;;;;;;;6.80;99.90;;;;;;5051462;28;19928;-74
2021/12/18 02:36:25;;;;;;;;;;;6.70;99.90;;;;;;5051980;28;20248;-74
2021/12/18 02:41:38;;;;;;;;;;;6.60;99.90;;;;;;5051777;28;19912;-74
2021/12/18 02:44:05;;;;;;;;;;;6.50;99.90;;;;;;5051385;28;19905;-73
2021/12/18 02:46:31;;;;;;;;;;;6.50;99.90;;;;;;5051899;28;19913;-73
2021/12/18 02:48:57;;;;;;;;;;;6.50;99.90;;;;;;5054416;28;19912;-73
2021/12/18 02:51:23;;;;;;;;;;;6.40;99.90;;;;;;5055248;28;19904;-74
2021/12/18 02:53:50;;;;;;;;;;;6.40;99.90;;;;;;5055149;28;19911;-74
2021/12/18 02:56:18;;;;;;;;;;;6.30;99.90;;;;;;5055716;28;19905;-75
2021/12/18 02:58:46;;;;;;;;;;;6.30;99.90;;;;;;5054811;28;19904;-74
2021/12/18 03:01:13;;;;;;;;;;;6.30;99.90;;;;;;5055368;28;19909;-74
2021/12/18 03:03:41;;;;;;;;;;;6.20;99.90;;;;;;5055615;28;20352;-74
2021/12/18 03:24:43;;;;;;;;;;;5.90;99.90;;;;;;5055096;28;19905;-74
2021/12/18 03:27:08;;;;;;;;;;;5.90;99.90;;;;;;5054242;28;19905;-74
2021/12/18 03:29:34;;;;;;;;;;;5.90;99.90;;;;;;5054774;28;19909;-74
2021/12/18 03:32:00;;;;;;;;;;;5.80;99.90;;;;;;5054070;28;19904;-74
2021/12/18 03:34:25;;;;;;;;;;;5.80;99.90;;;;;;5054761;28;19944;-73
2021/12/18 03:36:52;;;;;;;;;;;5.70;99.90;;;;;;5053785;28;19967;-75
2021/12/18 03:39:18;;;;;;;;;;;5.60;99.90;;;;;;5054738;28;19995;-73
2021/12/18 03:41:44;;;;;;;;;;;5.60;99.90;;;;;;5054115;28;20343;-73
2021/12/18 03:44:09;;;;;;;;;;;5.60;99.90;;;;;;5053583;28;19928;-74
2021/12/18 03:46:35;;;;;;;;;;;5.60;99.90;;;;;;5054099;28;20348;-73
2021/12/18 03:49:00;;;;;;;;;;;5.60;99.90;;;;;;5053554;28;19905;-74
2021/12/18 03:51:26;;;;;;;;;;;5.50;99.90;;;;;;5054268;28;19905;-74
2021/12/18 03:53:52;;;;;;;;;;;5.40;99.90;;;;;;5053621;28;20317;-75
2021/12/18 03:56:18;;;;;;;;;;;5.40;99.90;;;;;;5052984;28;20286;-74
2021/12/18 03:58:44;;;;;;;;;;;5.40;99.90;;;;;;5052930;28;20124;-74
2021/12/18 04:01:09;;;;;;;;;;;5.30;99.90;;;;;;5052395;28;20332;-74
2021/12/18 04:03:35;;;;;;;;;;;5.30;99.90;;;;;;5053940;28;19911;-74
2021/12/18 04:06:01;;;;;;;;;;;5.30;99.90;;;;;;5068737;28;19913;-75
2021/12/18 04:08:26;;;;;;;;;;;5.30;99.90;;;;;;5056486;28;19917;-74
2021/12/18 04:10:52;;;;;;;;;;;5.30;99.90;;;;;;5053140;28;19912;-74
2021/12/18 04:13:18;;;;;;;;;;;5.30;99.90;;;;;;5053862;28;19944;-74
2021/12/18 04:15:43;;;;;;;;;;;5.20;99.90;;;;;;5053828;28;20015;-75
2021/12/18 04:18:09;;;;;;;;;;;5.20;99.90;;;;;;5053093;28;19901;-75
2021/12/18 04:20:34;;;;;;;;;;;5.20;99.90;;;;;;5053526;28;19970;-74
2021/12/18 04:23:00;;;;;;;;;;;5.10;99.90;;;;;;5053146;28;19911;-74
2021/12/18 04:25:26;;;;;;;;;;;5.00;99.90;;;;;;5053737;28;19913;-74
2021/12/18 04:27:52;;;;;;;;;;;5.00;99.90;;;;;;5052826;28;20279;-74
2021/12/18 04:30:18;;;;;;;;;;;4.90;99.90;;;;;;5053604;28;20256;-74
2021/12/18 04:32:44;;;;;;;;;;;5.00;99.90;;;;;;5053535;28;19905;-74
2021/12/18 04:35:09;;;;;;;;;;;4.90;99.90;;;;;;5053235;28;20377;-74
2021/12/18 04:37:35;;;;;;;;;;;4.80;99.90;;;;;;5053247;28;19905;-74
2021/12/18 04:40:01;;;;;;;;;;;4.80;99.90;;;;;;5052434;28;19905;-75
2021/12/18 04:42:27;;;;;;;;;;;4.70;99.90;;;;;;5052223;28;19904;-74
2021/12/18 04:44:52;;;;;;;;;;;4.70;99.90;;;;;;5052530;28;19964;-73
2021/12/18 04:47:18;;;;;;;;;;;4.70;99.90;;;;;;5053469;28;20005;-74
2021/12/18 04:49:43;;;;;;;;;;;4.70;99.90;;;;;;5053265;28;20290;-74
2021/12/18 04:52:09;;;;;;;;;;;4.60;99.90;;;;;;5052340;28;20559;-74
2021/12/18 04:54:35;;;;;;;;;;;4.60;99.90;;;;;;5052916;28;19912;-74
2021/12/18 04:57:00;;;;;;;;;;;4.60;99.90;;;;;;5052475;28;19986;-74
2021/12/18 04:59:26;;;;;;;;;;;4.60;99.90;;;;;;5053365;28;19982;-74
2021/12/18 05:01:52;;;;;;;;;;;4.70;99.90;;;;;;5052091;28;19904;-75
2021/12/18 05:04:19;;;;;;;;;;;4.70;99.90;;;;;;5052691;28;19912;-74
2021/12/18 05:06:46;;;;;;;;;;;4.60;99.90;;;;;;5052913;28;19916;-74
2021/12/18 05:09:13;;;;;;;;;;;4.50;99.90;;;;;;5052314;28;19912;-74
2021/12/18 05:11:39;;;;;;;;;;;4.50;99.90;;;;;;5052440;28;19958;-74
2021/12/18 05:14:05;;;;;;;;;;;4.50;99.90;;;;;;5051998;28;19909;-74
2021/12/18 05:16:30;;;;;;;;;;;4.50;99.90;;;;;;5052828;28;19958;-74
2021/12/18 05:18:56;;;;;;;;;;;4.50;99.90;;;;;;5051747;28;19912;-74
2021/12/18 05:21:21;;;;;;;;;;;4.40;99.90;;;;;;5052831;28;19905;-73
2021/12/18 05:23:48;;;;;;;;;;;4.40;99.90;;;;;;5052667;28;20359;-73
2021/12/18 05:26:14;;;;;;;;;;;4.40;99.90;;;;;;5051960;28;19908;-72
2021/12/18 05:28:39;;;;;;;;;;;4.30;99.90;;;;;;5052389;28;19904;-73
2021/12/18 05:31:05;;;;;;;;;;;4.30;99.90;;;;;;5051794;28;19956;-74
2021/12/18 05:33:31;;;;;;;;;;;4.30;99.90;;;;;;5052721;28;19909;-74
2021/12/18 05:35:56;;;;;;;;;;;4.20;99.90;;;;;;5051937;28;20309;-74
2021/12/18 05:38:22;;;;;;;;;;;4.20;99.90;;;;;;5052708;28;19904;-74
2021/12/18 05:40:47;;;;;;;;;;;4.20;99.90;;;;;;5052183;28;19912;-74
2021/12/18 05:43:13;;;;;;;;;;;4.20;99.90;;;;;;5051898;28;20362;-74
2021/12/18 05:45:39;;;;;;;;;;;4.10;99.90;;;;;;5052324;28;19913;-74
2021/12/18 05:48:05;;;;;;;;;;;4.10;99.90;;;;;;5052303;28;20005;-74
2021/12/18 05:50:31;;;;;;;;;;;4.10;99.90;;;;;;5052435;28;19912;-74
2021/12/18 05:52:58;;;;;;;;;;;4.10;99.90;;;;;;5051701;28;19948;-74
2021/12/18 05:55:25;;;;;;;;;;;4.10;99.90;;;;;;5052587;28;19908;-74
2021/12/18 05:57:51;;;;;;;;;;;4.10;99.90;;;;;;5052337;28;19995;-74
2021/12/18 06:00:17;;;;;;;;;;;4.00;99.90;;;;;;5051424;28;19909;-74
2021/12/18 06:02:42;;;;;;;;;;;4.10;99.90;;;;;;5052315;28;19959;-74
2021/12/18 06:05:09;;;;;;;;;;;4.00;99.90;;;;;;5066950;28;20271;-74
2021/12/18 06:07:54;;;;;;;;;;;3.90;99.90;;;;;;5052318;28;19905;-73
2021/12/18 06:10:24;;;;;;;;;;;3.90;99.90;;;;;;5052019;28;19911;-74
2021/12/18 06:12:50;;;;;;;;;;;3.90;99.90;;;;;;5052341;28;19904;-72
2021/12/18 06:15:16;;;;;;;;;;;3.90;99.90;;;;;;5066776;28;20159;-72
2021/12/18 06:17:41;;;;;;;;;;;3.90;99.90;;;;;;5052199;28;19904;-72
2021/12/18 06:20:08;;;;;;;;;;;4.00;99.90;;;;;;5051540;28;19996;-72
2021/12/18 06:22:33;;;;;;;;;;;4.00;99.90;;;;;;5052966;28;19905;-73
2021/12/18 06:24:59;;;;;;;;;;;4.10;99.90;;;;;;5054990;28;19932;-73
2021/12/18 06:27:25;;;;;;;;;;;4.10;99.90;;;;;;5054633;28;19905;-73
2021/12/18 06:29:50;;;;;;;;;;;4.10;99.90;;;;;;5062604;28;20283;-71
2021/12/18 06:32:16;;;;;;;;;;;4.20;99.90;;;;;;5068727;28;19901;-72
2021/12/18 06:34:41;;;;;;;;;;;4.20;99.90;;;;;;5061362;28;19909;-72
2021/12/18 06:37:07;;;;;;;;;;;4.10;99.90;;;;;;5054855;28;20007;-73
2021/12/18 06:39:32;;;;;;;;;;;4.20;99.90;;;;;;5071112;28;20252;-73
2021/12/18 06:41:58;;;;;;;;;;;4.20;99.90;;;;;;5055205;28;20003;-73
2021/12/18 06:44:24;;;;;;;;;;;4.20;99.90;;;;;;5055180;28;19916;-73
2021/12/18 06:46:49;;;;;;;;;;;4.20;99.90;;;;;;5055244;28;19912;-73
2021/12/18 06:49:15;;;;;;;;;;;4.30;99.90;;;;;;5054797;28;19957;-73
2021/12/18 06:51:40;;;;;;;;;;;4.20;99.90;;;;;;5055375;28;19917;-73
2021/12/18 06:54:06;;;;;;;;;;;4.30;99.90;;;;;;5053522;28;20275;-72
2021/12/18 06:56:32;;;;;;;;;;;4.30;99.90;;;;;;5055411;28;19930;-73
2021/12/18 06:58:57;;;;;;;;;;;4.40;99.90;;;;;;5054920;28;19905;-73
2021/12/18 07:01:23;;;;;;;;;;;4.40;99.90;;;;;;5053704;28;19966;-73
2021/12/18 07:03:49;;;;;;;;;;;4.40;99.90;;;;;;5055042;28;19941;-73
2021/12/18 07:06:14;;;;;;;;;;;4.40;99.90;;;;;;5069904;28;19917;-73
2021/12/18 07:08:40;;;;;;;;;;;4.30;99.90;;;;;;5070410;28;19991;-72
2021/12/18 07:11:05;;;;;;;;;;;4.40;99.90;;;;;;5054260;28;19959;-73
2021/12/18 07:13:31;;;;;;;;;;;4.50;99.90;;;;;;5055083;28;20398;-72
2021/12/18 07:15:56;;;;;;;;;;;4.60;99.90;;;;;;5053519;28;19904;-72
2021/12/18 07:18:22;;;;;;;;;;;4.60;99.90;;;;;;5054367;28;19904;-72
2021/12/18 07:20:48;;;;;;;;;;;4.70;99.90;;;;;;5055012;28;19904;-73
2021/12/18 07:23:14;;;;;;;;;;;4.70;99.90;;;;;;5054336;28;20363;-72
2021/12/18 07:25:39;;;;;;;;;;;4.80;99.90;;;;;;5054672;28;20386;-72
2021/12/18 07:28:05;;;;;;;;;;;4.80;99.90;;;;;;5052889;28;19904;-73
2021/12/18 07:30:31;;;;;;;;;;;4.90;99.90;;;;;;5054735;28;20336;-73
2021/12/18 07:32:56;;;;;;;;;;;4.90;99.90;;;;;;5054113;28;19912;-72
2021/12/18 07:35:22;;;;;;;;;;;4.90;99.90;;;;;;5053618;28;20003;-72
2021/12/18 07:37:47;;;;;;;;;;;5.00;99.90;;;;;;5054520;28;19911;-72
2021/12/18 07:40:14;;;;;;;;;;;5.10;99.90;;;;;;5053961;28;19998;-73
2021/12/18 07:42:39;;;;;;;;;;;5.20;99.90;;;;;;5054419;28;19999;-72
2021/12/18 07:45:05;;;;;;;;;;;5.20;99.90;;;;;;5053479;28;20012;-72
2021/12/18 07:47:31;;;;;;;;;;;5.20;99.90;;;;;;5054062;28;19912;-72
2021/12/18 07:49:57;;;;;;;;;;;5.20;99.90;;;;;;5054101;28;19905;-72
2021/12/18 07:52:22;;;;;;;;;;;5.20;99.90;;;;;;5052463;28;19901;-72
2021/12/18 07:54:48;;;;;;;;;;;5.30;99.90;;;;;;5054485;28;19999;-72
2021/12/18 07:57:14;;;;;;;;;;;5.40;99.90;;;;;;5053395;28;20007;-73
2021/12/18 07:59:39;;;;;;;;;;;5.60;99.90;;;;;;5054288;28;19905;-72
2021/12/18 08:02:05;;;;;;;;;;;5.70;99.90;;;;;;5053685;28;19912;-73
2021/12/18 08:04:32;;;;;;;;;;;5.80;99.90;;;;;;5054321;28;19949;-73
2021/12/18 08:06:57;;;;;;;;;;;5.80;99.90;;;;;;5054022;28;19912;-73
2021/12/18 08:09:23;;;;;;;;;;;5.80;99.90;;;;;;5053204;28;20007;-73
2021/12/18 08:11:48;;;;;;;;;;;5.90;99.90;;;;;;5053611;28;20362;-74
2021/12/18 08:14:14;;;;;;;;;;;5.90;99.90;;;;;;5053148;28;19909;-74
2021/12/18 08:16:39;;;;;;;;;;;5.90;99.90;;;;;;5054074;28;19905;-75
2021/12/18 08:19:05;;;;;;;;;;;6.00;99.90;;;;;;5053070;28;19904;-74
2021/12/18 08:21:30;;;;;;;;;;;6.10;99.90;;;;;;5053757;28;20351;-74
2021/12/18 08:23:56;;;;;;;;;;;6.20;99.90;;;;;;5053730;28;19935;-74
2021/12/18 08:26:22;;;;;;;;;;;6.30;99.90;;;;;;5052739;28;19974;-74
2021/12/18 08:28:47;;;;;;;;;;;6.40;99.90;;;;;;5053543;28;20256;-75
2021/12/18 08:31:13;;;;;;;;;;;6.40;99.90;;;;;;5052645;28;20321;-75
2021/12/18 08:33:39;;;;;;;;;;;6.50;99.90;;;;;;5053515;28;19905;-75
2021/12/18 08:36:04;;;;;;;;;;;6.50;99.90;;;;;;5053186;28;20015;-75
2021/12/18 08:38:30;;;;;;;;;;;6.50;99.90;;;;;;5053096;28;19912;-74
2021/12/18 08:40:56;;;;;;;;;;;6.60;99.90;;;;;;5051563;28;20283;-74
2021/12/18 08:43:21;;;;;;;;;;;6.70;99.90;;;;;;5052393;28;19908;-75
2021/12/18 08:45:47;;;;;;;;;;;6.80;99.90;;;;;;5052003;28;19912;-75
2021/12/18 08:48:12;;;;;;;;;;;6.80;99.90;;;;;;5067810;28;19934;-75
2021/12/18 08:50:38;;;;;;;;;;;6.80;99.90;;;;;;5053184;28;20373;-74
2021/12/18 08:53:04;;;;;;;;;;;6.80;99.90;;;;;;5057343;28;19909;-73
2021/12/18 08:55:29;;;;;;;;;;;6.80;99.90;;;;;;5053676;28;19905;-74
2021/12/18 08:57:55;;;;;;;;;;;6.80;99.90;;;;;;5053102;28;20348;-73
2021/12/18 09:00:22;;;;;;;;;;;6.80;99.90;;;;;;5052430;28;20077;-74
2021/12/18 09:02:48;;;;;;;;;;;6.90;99.90;;;;;;5052967;28;19987;-74
2021/12/18 09:05:14;;;;;;;;;;;6.90;99.90;;;;;;5051764;28;19971;-74
2021/12/18 09:07:40;;;;;;;;;;;6.90;99.90;;;;;;5052684;28;19912;-73
2021/12/18 09:10:07;;;;;;;;;;;6.90;99.90;;;;;;5052708;28;19904;-74
2021/12/18 09:12:32;;;;;;;;;;;7.00;99.90;;;;;;5052624;28;19904;-74
2021/12/18 09:14:58;;;;;;;;;;;7.00;99.90;;;;;;5052503;28;19905;-74
2021/12/18 09:17:24;;;;;;;;;;;7.10;99.90;;;;;;5052117;28;19909;-74
2021/12/18 09:19:50;;;;;;;;;;;7.20;99.90;;;;;;5052671;28;19912;-74
2021/12/18 09:22:17;;;;;;;;;;;7.20;99.90;;;;;;5052070;28;19912;-74
2021/12/18 09:24:42;;;;;;;;;;;7.20;99.90;;;;;;5052608;28;19904;-74
2021/12/18 09:27:08;;;;;;;;;;;7.30;99.90;;;;;;5052046;28;19912;-74
2021/12/18 09:29:34;;;;;;;;;;;7.30;99.90;;;;;;5052713;28;19908;-73
2021/12/18 09:31:59;;;;;;;;;;;7.30;99.90;;;;;;5052277;28;19905;-74
2021/12/18 09:34:27;;;;;;;;;;;7.40;99.90;;;;;;5051702;28;19911;-74
2021/12/18 09:36:53;;;;;;;;;;;7.40;99.90;;;;;;5052418;28;19904;-74
2021/12/18 09:39:19;;;;;;;;;;;7.40;99.90;;;;;;5051559;28;19958;-73
2021/12/18 09:41:47;;;;;;;;;;;7.40;99.90;;;;;;5051883;28;20018;-72
2021/12/18 09:44:13;;;;;;;;;;;7.50;99.90;;;;;;5051550;28;19955;-73
2021/12/18 09:46:38;;;;;;;;;;;7.50;99.90;;;;;;5052499;28;19917;-72
2021/12/18 09:49:04;;;;;;;;;;;7.60;99.90;;;;;;5053572;28;19908;-73
2021/12/18 09:51:30;;;;;;;;;;;7.50;99.90;;;;;;5057525;28;19911;-75
2021/12/18 09:53:56;;;;;;;;;;;7.60;99.90;;;;;;5052741;28;19950;-73
2021/12/18 09:56:23;;;;;;;;;;;7.60;99.90;;;;;;5052009;28;20244;-74
2021/12/18 09:58:49;;;;;;;;;;;7.60;99.90;;;;;;5056310;28;19905;-74
2021/12/18 10:01:15;;;;;;;;;;;7.70;99.90;;;;;;5055720;28;19915;-73
2021/12/18 10:03:44;;;;;;;;;;;7.70;99.90;;;;;;5055994;28;19936;-74
2021/12/18 10:06:29;;;;;;;;;;;7.70;99.90;;;;;;5056022;28;19912;-74
2021/12/18 10:08:54;;;;;;;;;;;7.80;99.90;;;;;;5055980;28;20348;-74
2021/12/18 10:11:20;;;;;;;;;;;7.80;99.90;;;;;;5055418;28;19991;-74
2021/12/18 10:13:56;;;;;;;;;;;7.90;99.90;;;;;;5056137;28;19904;-74
2021/12/18 10:16:22;;;;;;;;;;;7.90;99.90;;;;;;5055463;28;19909;-74
2021/12/18 10:18:49;;;;;;;;;;;8.00;99.90;;;;;;5054614;28;20416;-74
2021/12/18 10:21:17;;;;;;;;;;;8.00;99.90;;;;;;5055321;28;19998;-74
2021/12/18 10:23:43;;;;;;;;;;;8.00;99.90;;;;;;5056029;28;19905;-72
2021/12/18 10:26:28;;;;;;;;;;;8.10;99.90;;;;;;5055470;28;19958;-73
2021/12/18 10:28:53;;;;;;;;;;;8.00;99.90;;;;;;5055818;28;19944;-73
2021/12/18 10:31:37;;;;;;;;;;;8.10;99.90;;;;;;5054856;28;19912;-74
2021/12/18 10:34:21;;;;;;;;;;;8.20;99.90;;;;;;5055276;28;20355;-74
2021/12/18 10:37:05;;;;;;;;;;;8.20;99.90;;;;;;5055445;28;19912;-74
2021/12/18 10:39:31;;;;;;;;;;;8.20;99.90;;;;;;5054999;28;20005;-73
2021/12/18 10:41:57;;;;;;;;;;;8.20;99.90;;;;;;5055619;28;19971;-73
2021/12/18 10:44:22;;;;;;;;;;;8.30;99.90;;;;;;5055030;28;19908;-74
2021/12/18 10:46:52;;;;;;;;;;;8.30;99.90;;;;;;5055161;28;19920;-74
2021/12/18 10:49:18;;;;;;;;;;;8.40;99.90;;;;;;5054751;28;20351;-73
2021/12/18 10:51:45;;;;;;;;;;;8.40;99.90;;;;;;5053911;28;19951;-74
2021/12/18 10:54:13;;;;;;;;;;;8.40;99.90;;;;;;5055652;28;20267;-74
2021/12/18 10:56:40;;;;;;;;;;;8.40;99.90;;;;;;5054953;28;19905;-73
2021/12/18 10:59:20;;;;;;;;;;;8.50;99.90;;;;;;5054705;28;19911;-73
2021/12/18 11:01:50;;;;;;;;;;;8.50;99.90;;;;;;5055074;28;19940;-74
2021/12/18 11:04:21;;;;;;;;;;;8.50;99.90;;;;;;5054471;28;19911;-73
2021/12/18 11:06:47;;;;;;;;;;;8.60;99.90;;;;;;5054921;28;19912;-74
2021/12/18 11:09:14;;;;;;;;;;;8.60;99.90;;;;;;5054226;28;19924;-74
2021/12/18 11:14:32;;;;;;;;;;;8.60;99.90;;;;;;5054377;28;19904;-73
2021/12/18 11:17:01;;;;;;;;;;;8.60;99.90;;;;;;5054841;28;19905;-74
2021/12/18 11:19:28;;;;;;;;;;;8.70;99.90;;;;;;5053966;28;19940;-74
2021/12/18 11:21:56;;;;;;;;;;;8.70;99.90;;;;;;5054800;28;19905;-73
2021/12/18 11:24:28;;;;;;;;;;;8.70;99.90;;;;;;5053833;28;20401;-74
2021/12/18 11:26:58;;;;;;;;;;;8.70;99.90;;;;;;5054671;28;19919;-74
2021/12/18 11:29:55;;;;;;;;;;;8.80;99.90;;;;;;5054303;28;19916;-74
2021/12/18 11:32:23;;;;;;;;;;;8.80;99.90;;;;;;5053519;28;19908;-74
2021/12/18 11:34:49;;;;;;;;;;;8.70;99.90;;;;;;5054383;28;20295;-73
2021/12/18 11:37:16;;;;;;;;;;;8.70;99.90;;;;;;5053965;28;19908;-74
2021/12/18 11:39:44;;;;;;;;;;;8.70;99.90;;;;;;5053694;28;20271;-74
2021/12/18 11:42:10;;;;;;;;;;;8.80;99.90;;;;;;5053984;28;20278;-74
2021/12/18 11:44:44;;;;;;;;;;;8.80;99.90;;;;;;5053827;28;19905;-74
2021/12/18 11:47:18;;;;;;;;;;;8.90;99.90;;;;;;5054331;28;19956;-73
2021/12/18 11:49:44;;;;;;;;;;;8.90;99.90;;;;;;5054092;28;19915;-73
2021/12/18 11:52:10;;;;;;;;;;;8.90;99.90;;;;;;5054216;28;20336;-74
2021/12/18 11:54:42;;;;;;;;;;;9.00;99.90;;;;;;5053209;28;19927;-72
2021/12/18 11:57:08;;;;;;;;;;;9.00;99.90;;;;;;5053917;28;20362;-72
2021/12/18 11:59:41;;;;;;;;;;;9.00;99.90;;;;;;5053310;28;19916;-74
2021/12/18 12:02:07;;;;;;;;;;;9.10;99.90;;;;;;5053823;28;19939;-73
2021/12/18 12:04:51;;;;;;;;;;;9.10;99.90;;;;;;5053430;28;19904;-73
2021/12/18 12:07:22;;;;;;;;;;;9.10;99.90;;;;;;5053770;28;19916;-75
2021/12/18 12:10:23;;;;;;;;;;;9.00;99.90;;;;;;5053859;28;19917;-72
2021/12/18 12:12:56;;;;;;;;;;;9.00;99.90;;;;;;5052746;28;19911;-75
2021/12/18 12:15:24;;;;;;;;;;;9.00;99.90;;;;;;5053291;28;19909;-75
2021/12/18 12:17:58;;;;;;;;;;;9.00;99.90;;;;;;5053430;28;20377;-74
2021/12/18 12:20:46;;;;;;;;;;;9.00;99.90;;;;;;5053127;28;19911;-73
2021/12/18 12:23:12;;;;;;;;;;;9.00;99.90;;;;;;5053865;28;19991;-73
2021/12/18 12:25:46;;;;;;;;;;;8.90;99.90;;;;;;5052939;28;19974;-73
2021/12/18 12:28:14;;;;;;;;;;;8.90;99.90;;;;;;5053678;28;19905;-74
2021/12/18 12:30:43;;;;;;;;;;;8.90;99.90;;;;;;5052856;28;20565;-74
2021/12/18 12:33:10;;;;;;;;;;;8.90;99.90;;;;;;5053374;28;19904;-73
2021/12/18 12:36:11;;;;;;;;;;;8.90;99.90;;;;;;5057468;28;19912;-73
2021/12/18 12:38:56;;;;;;;;;;;8.90;99.90;;;;;;5051927;28;19908;-71
2021/12/18 12:41:33;;;;;;;;;;;9.00;99.90;;;;;;5052176;28;19915;-74
2021/12/18 12:44:13;;;;;;;;;;;9.00;99.90;;;;;;5053440;28;19911;-73
2021/12/18 12:46:39;;;;;;;;;;;8.90;99.90;;;;;;5052636;28;19965;-74
2021/12/18 12:49:06;;;;;;;;;;;8.90;99.90;;;;;;5051785;28;20403;-74
2021/12/18 12:51:54;;;;;;;;;;;8.90;99.90;;;;;;5052464;28;20344;-73
2021/12/18 12:54:38;;;;;;;;;;;8.90;99.90;;;;;;5053187;28;19911;-72
2021/12/18 12:57:22;;;;;;;;;;;8.90;99.90;;;;;;5052904;28;19905;-73
2021/12/18 12:59:48;;;;;;;;;;;8.90;99.90;;;;;;5052727;28;19909;-74
2021/12/18 13:02:14;;;;;;;;;;;8.80;99.90;;;;;;5052731;28;20009;-74
2021/12/18 13:04:39;;;;;;;;;;;8.80;99.90;;;;;;5052331;28;19904;-74
2021/12/18 13:07:06;;;;;;;;;;;8.80;99.90;;;;;;5052353;28;19935;-74
2021/12/18 13:09:32;;;;;;;;;;;8.90;99.90;;;;;;5051415;28;19916;-73
2021/12/18 13:12:04;;;;;;;;;;;8.90;99.90;;;;;;5052827;28;19911;-74
2021/12/18 13:14:36;;;;;;;;;;;8.90;99.90;;;;;;5051747;28;19905;-74
2021/12/18 13:17:15;;;;;;;;;;;8.90;99.90;;;;;;5052683;28;19904;-73
2021/12/18 13:19:51;;;;;;;;;;;8.90;99.90;;;;;;5051902;28;19911;-73
2021/12/18 13:22:16;;;;;;;;;;;9.00;99.90;;;;;;5052880;28;19905;-73
2021/12/18 13:24:42;;;;;;;;;;;8.90;99.90;;;;;;5051693;28;20058;-74
2021/12/18 13:27:11;;;;;;;;;;;9.00;99.90;;;;;;5068210;28;19956;-73
2021/12/18 13:29:37;;;;;;;;;;;9.00;99.90;;;;;;5050699;28;19905;-74
2021/12/18 13:32:04;;;;;;;;;;;9.00;99.90;;;;;;5052031;28;20298;-74
2021/12/18 13:34:32;;;;;;;;;;;9.00;99.90;;;;;;5052176;28;19905;-74
2021/12/18 13:37:05;;;;;;;;;;;9.00;99.90;;;;;;5052270;28;19905;-74
2021/12/18 13:39:32;;;;;;;;;;;9.00;99.90;;;;;;5051519;28;19905;-72
2021/12/18 13:42:03;;;;;;;;;;;9.00;99.90;;;;;;5052398;28;20007;-72
2021/12/18 13:44:42;;;;;;;;;;;9.00;99.90;;;;;;5051371;28;19962;-73
2021/12/18 13:47:11;;;;;;;;;;;9.00;99.90;;;;;;5051937;28;19913;-72
2021/12/18 13:49:37;;;;;;;;;;;9.00;99.90;;;;;;5051206;28;20367;-72
2021/12/18 13:52:05;;;;;;;;;;;9.00;99.90;;;;;;5051920;28;19912;-72
2021/12/18 13:54:33;;;;;;;;;;;9.00;99.90;;;;;;5050125;28;20334;-72
2021/12/18 13:56:58;;;;;;;;;;;9.00;99.90;;;;;;5052248;28;19912;-73
2021/12/18 13:59:24;;;;;;;;;;;9.00;99.90;;;;;;5051562;28;19909;-73
2021/12/18 14:01:51;;;;;;;;;;;9.00;99.90;;;;;;5066605;28;20011;-73
2021/12/18 14:04:18;;;;;;;;;;;8.90;99.90;;;;;;5051829;28;19905;-73
2021/12/18 14:06:46;;;;;;;;;;;8.90;99.90;;;;;;5050908;28;19920;-73
2021/12/18 14:09:25;;;;;;;;;;;9.00;99.90;;;;;;5051171;28;19917;-73
2021/12/18 14:12:02;;;;;;;;;;;9.00;99.90;;;;;;5051234;28;19928;-73
2021/12/18 14:14:33;;;;;;;;;;;9.00;99.90;;;;;;5051481;28;20416;-74
2021/12/18 14:16:59;;;;;;;;;;;9.00;99.90;;;;;;5051476;28;20287;-73
2021/12/18 14:19:29;;;;;;;;;;;9.00;99.90;;;;;;5051473;28;19908;-73
2021/12/18 14:21:55;;;;;;;;;;;9.00;99.90;;;;;;5051338;28;19908;-73
2021/12/18 14:24:21;;;;;;;;;;;9.00;99.90;;;;;;5051710;28;19908;-73
2021/12/18 14:27:13;;;;;;;;;;;9.00;99.90;;;;;;5050783;28;20465;-73
2021/12/18 14:29:49;;;;;;;;;;;8.90;99.90;;;;;;5050488;28;19905;-73
2021/12/18 14:32:15;;;;;;;;;;;9.00;99.90;;;;;;5051570;28;19915;-73
2021/12/18 14:34:42;;;;;;;;;;;8.90;99.90;;;;;;5050875;28;19904;-74
2021/12/18 14:37:17;;;;;;;;;;;8.90;99.90;;;;;;5050297;28;19904;-73
2021/12/18 14:39:43;;;;;;;;;;;9.00;99.90;;;;;;5050535;28;20252;-74
2021/12/18 14:42:11;;;;;;;;;;;8.90;99.90;;;;;;5051498;28;19912;-74
2021/12/18 14:44:41;;;;;;;;;;;8.90;99.90;;;;;;5053285;28;19928;-74
2021/12/18 14:47:12;;;;;;;;;;;8.90;99.90;;;;;;5055118;28;19913;-73
2021/12/18 14:49:52;;;;;;;;;;;8.90;99.90;;;;;;5054216;28;20317;-73
2021/12/18 14:52:18;;;;;;;;;;;8.90;99.90;;;;;;5053922;28;20382;-73
2021/12/18 14:54:48;;;;;;;;;;;8.90;99.90;;;;;;5054255;28;19904;-73
2021/12/18 14:57:17;;;;;;;;;;;8.90;99.90;;;;;;5055013;28;20245;-72
2021/12/18 14:59:43;;;;;;;;;;;8.80;99.90;;;;;;5054252;28;19948;-73
2021/12/18 15:02:09;;;;;;;;;;;8.80;99.90;;;;;;5054676;28;19932;-74
2021/12/18 15:04:34;;;;;;;;;;;8.80;99.90;;;;;;5054217;28;20003;-73
2021/12/18 15:07:00;;;;;;;;;;;8.80;99.90;;;;;;5054581;28;19913;-73
2021/12/18 15:09:28;;;;;;;;;;;8.80;99.90;;;;;;5054013;28;19939;-72
2021/12/18 15:11:53;;;;;;;;;;;8.70;99.90;;;;;;5054455;28;19992;-73
2021/12/18 15:14:24;;;;;;;;;;;8.70;99.90;;;;;;5052974;28;20339;-73
2021/12/18 15:17:25;;;;;;;;;;;8.70;99.90;;;;;;5052764;28;20385;-73
2021/12/18 15:19:51;;;;;;;;;;;8.70;99.90;;;;;;5051698;28;19904;-73
2021/12/18 15:22:16;;;;;;;;;;;8.70;99.90;;;;;;5053867;28;20329;-73
2021/12/18 15:24:43;;;;;;;;;;;8.70;99.90;;;;;;5053857;28;19905;-73
2021/12/18 15:27:09;;;;;;;;;;;8.60;99.90;;;;;;5054375;28;19927;-73